Terminal Aerodrome Forecast
Issued by NWS Caribou, ME

Home | Current Version | Previous Version | Text Only | Print | Product List | Glossary On
Versions: 1 2 3 4 5 6 7 8 9 10 11
000
FTUS41 KCAR 261720
TAFBGR
TAF
KBGR 261720Z 2618/2718 29013G22KT P6SM FEW050
     FM262100 28008KT P6SM SKC
     FM270300 27004KT P6SM SKC
     FM271500 26008KT P6SM FEW050 BKN200=

USA.gov is the U.S. government's official web portal to all federal, state and local government web resources and services.